www.meteoamater.cz
Weather data: current steda, 17.04.2024 10:45
Date Time Temperature Humidity Barometer Rain Wind Sunshine ET UV - Index Solar Dewpoint Wind chill Wind gust
17.04.2024 10:45 1,5 C 90 % 1005,3 hPa 0,0 l/m2 4,3 km/h (1 Bft) 0 min 0,051 mm 1,6 UV-I 248 W/m2 0,0 C 1,5 C 23,2 km/h (4 Bft)
17.04.2024 09:45 0,9 C 92 % 1004,7 hPa 0,0 l/m2 6,3 km/h (2 Bft) 0 min 0,025 mm 0,9 UV-I 148 W/m2 -0,2 C -1,1 C 15,4 km/h (3 Bft)
17.04.2024 08:45 0,4 C 92 % 1004,6 hPa 0,0 l/m2 5,4 km/h (1 Bft) 0 min 0,000 mm 0,0 UV-I 43 W/m2 -0,7 C -1,3 C 17,4 km/h (3 Bft)
17.04.2024 07:45 0,4 C 91 % 1003,9 hPa 0,0 l/m2 5,5 km/h (1 Bft) 0 min 0,000 mm 0,0 UV-I 23 W/m2 -0,9 C -1,4 C 25,1 km/h (4 Bft)
17.04.2024 06:45 0,7 C 91 % 1003,5 hPa 0,0 l/m2 9,1 km/h (2 Bft) 0 min 0,000 mm 0,0 UV-I 7 W/m2 -0,6 C -2,2 C 32,8 km/h (5 Bft)
17.04.2024 05:45 1,2 C 90 % 1002,8 hPa 0,0 l/m2 4,4 km/h (1 Bft) 0 min 0,000 mm 0,0 UV-I 0 W/m2 -0,3 C 1,2 C 29,0 km/h (5 Bft)
17.04.2024 04:45 1,8 C 91 % 1002,0 hPa 0,0 l/m2 2,9 km/h (1 Bft) 0 min 0,000 mm 0,0 UV-I 0 W/m2 0,5 C 1,8 C 21,2 km/h (4 Bft)
17.04.2024 03:45 2,3 C 93 % 1001,7 hPa 0,0 l/m2 0,8 km/h (0 Bft) 0 min 0,000 mm 0,0 UV-I 0 W/m2 1,3 C 2,3 C 3,9 km/h (1 Bft)
17.04.2024 02:45 2,6 C 93 % 1001,6 hPa 0,0 l/m2 0,5 km/h (0 Bft) 0 min 0,000 mm 0,0 UV-I 0 W/m2 1,6 C 2,6 C 7,7 km/h (2 Bft)
17.04.2024 01:45 2,5 C 93 % 1001,7 hPa 0,0 l/m2 1,8 km/h (1 Bft) 0 min 0,000 mm 0,0 UV-I 0 W/m2 1,5 C 2,5 C 9,7 km/h (2 Bft)
17.04.2024 00:45 2,3 C 92 % 1001,5 hPa 0,0 l/m2 0,0 km/h (0 Bft) 0 min 0,000 mm 0,0 UV-I 0 W/m2 1,1 C 2,3 C 1,9 km/h (1 Bft)
16.04.2024 23:45 2,2 C 91 % 1001,0 hPa 0,2 l/m2 0,0 km/h (0 Bft) 0 min 0,000 mm 0,0 UV-I 0 W/m2 0,9 C 2,2 C 0,0 km/h (0 Bft)
16.04.2024 22:45 2,6 C 91 % 1000,6 hPa 0,8 l/m2 0,0 km/h (0 Bft) 0 min 0,000 mm 0,0 UV-I 0 W/m2 1,3 C 2,6 C 0,0 km/h (0 Bft)
16.04.2024 21:45 2,9 C 90 % 1000,7 hPa 0,8 l/m2 0,0 km/h (0 Bft) 0 min 0,000 mm 0,0 UV-I 0 W/m2 1,4 C 2,9 C 0,0 km/h (0 Bft)
16.04.2024 20:45 3,2 C 89 % 1000,5 hPa 0,2 l/m2 0,1 km/h (0 Bft) 0 min 0,000 mm 0,0 UV-I 0 W/m2 1,6 C 3,2 C 3,9 km/h (1 Bft)
16.04.2024 19:45 3,5 C 85 % 1000,3 hPa 0,8 l/m2 0,0 km/h (0 Bft) 0 min 0,051 mm 0,0 UV-I 0 W/m2 1,2 C 3,5 C 0,0 km/h (0 Bft)
16.04.2024 18:45 6,2 C 70 % 1000,1 hPa 0,0 l/m2 0,3 km/h (0 Bft) 15 min 0,076 mm 0,0 UV-I 40 W/m2 1,1 C 6,2 C 7,7 km/h (2 Bft)
16.04.2024 17:45 6,8 C 65 % 1000,0 hPa 0,0 l/m2 1,7 km/h (1 Bft) 5 min 0,101 mm 0,2 UV-I 131 W/m2 0,7 C 6,8 C 11,6 km/h (2 Bft)
16.04.2024 16:45 7,9 C 61 % 1000,0 hPa 0,0 l/m2 4,2 km/h (1 Bft) 20 min 0,178 mm 0,9 UV-I 179 W/m2 0,9 C 7,9 C 23,2 km/h (4 Bft)
16.04.2024 15:45 7,3 C 64 % 1000,4 hPa 0,0 l/m2 4,4 km/h (1 Bft) 25 min 0,229 mm 2,2 UV-I 631 W/m2 1,0 C 7,3 C 15,4 km/h (3 Bft)
16.04.2024 14:45 7,7 C 62 % 1001,1 hPa 0,0 l/m2 2,4 km/h (1 Bft) 40 min 0,279 mm 0,9 UV-I 152 W/m2 0,9 C 7,7 C 9,7 km/h (2 Bft)
16.04.2024 13:45 7,2 C 77 % 1000,9 hPa 0,0 l/m2 5,6 km/h (1 Bft) 40 min 0,178 mm 3,6 UV-I 852 W/m2 3,4 C 6,4 C 23,2 km/h (4 Bft)
16.04.2024 12:45 3,9 C 88 % 1001,5 hPa 0,2 l/m2 1,6 km/h (1 Bft) 20 min 0,076 mm 2,2 UV-I 287 W/m2 2,1 C 3,9 C 15,4 km/h (3 Bft)
16.04.2024 11:45 2,8 C 82 % 1001,8 hPa 0,6 l/m2 4,8 km/h (1 Bft) 5 min 0,076 mm 1,0 UV-I 153 W/m2 0,0 C 1,7 C 23,2 km/h (4 Bft)
16.04.2024 11:00 4,6 C 79 % 1001,4 hPa 0,0 l/m2 2,6 km/h (1 Bft) 0 min 0,076 mm 2,1 UV-I 359 W/m2 1,3 C 4,6 C 13,5 km/h (3 Bft)
_ Min-Time 08:20 16:15 19:25 - 04:55 - - - - 08:20 08:20 04:15
Minimum _ 0,3 C 59 % 1000,0 hPa - 0,0 km/h (0 Bft) - - - - -1,0 C -3,2 C 0,0 km/h (0 Bft)
_ Max-Time 14:25 04:00 10:45 19:20 08:20 18:15 14:00 13:25 13:35 13:30 14:25 13:55
Maximum _ 8,7 C 93 % 1005,3 hPa 0,4 l/m2 10,8 km/h
W (2 Bft)
5 min 0,279 mm 3,9 UV-I 941 W/m2 4,1 C 8,2 C 38,6 km/h
W (5 Bft)
Average _ 3,5 C 84 % 1001,6 hPa #3,6 l/m2 2,8 km/h (1 Bft) #0 min. #0,076 mm 0,9 UV-I 72 W/m2 0,9 C 3,1 C 12,7 km/h (3 Bft)
©2007-2024 Meteoamater.cz